5 day graph

You are here

Error message

  • Notice: Trying to access array offset on value of type int in DrupalRequestSanitizer::stripDangerousValues() (line 102 of /home/twolittl/public_html/cms/includes/request-sanitizer.inc).
  • Notice: Trying to access array offset on value of type int in DrupalRequestSanitizer::stripDangerousValues() (line 102 of /home/twolittl/public_html/cms/includes/request-sanitizer.inc).
  • Notice: Trying to access array offset on value of type int in DrupalRequestSanitizer::stripDangerousValues() (line 102 of /home/twolittl/public_html/cms/includes/request-sanitizer.inc).
  • Notice: Trying to access array offset on value of type int in DrupalRequestSanitizer::stripDangerousValues() (line 102 of /home/twolittl/public_html/cms/includes/request-sanitizer.inc).
  • Notice: Trying to access array offset on value of type int in DrupalRequestSanitizer::stripDangerousValues() (line 102 of /home/twolittl/public_html/cms/includes/request-sanitizer.inc).
  • Notice: Trying to access array offset on value of type int in DrupalRequestSanitizer::stripDangerousValues() (line 102 of /home/twolittl/public_html/cms/includes/request-sanitizer.inc).
  • Notice: Trying to access array offset on value of type int in DrupalRequestSanitizer::stripDangerousValues() (line 102 of /home/twolittl/public_html/cms/includes/request-sanitizer.inc).
  • Notice: Trying to access array offset on value of type int in DrupalRequestSanitizer::stripDangerousValues() (line 102 of /home/twolittl/public_html/cms/includes/request-sanitizer.inc).
  • Notice: Trying to access array offset on value of type int in DrupalRequestSanitizer::stripDangerousValues() (line 102 of /home/twolittl/public_html/cms/includes/request-sanitizer.inc).
  • Notice: Trying to access array offset on value of type int in DrupalRequestSanitizer::stripDangerousValues() (line 102 of /home/twolittl/public_html/cms/includes/request-sanitizer.inc).
  • Notice: Trying to access array offset on value of type int in DrupalRequestSanitizer::stripDangerousValues() (line 102 of /home/twolittl/public_html/cms/includes/request-sanitizer.inc).
  • Notice: Trying to access array offset on value of type int in DrupalRequestSanitizer::stripDangerousValues() (line 102 of /home/twolittl/public_html/cms/includes/request-sanitizer.inc).
  • Deprecated function: Function get_magic_quotes_gpc() is deprecated in phpMyEdit->get_cgi_var() (line 1773 of /home/twolittl/public_html/phpMyEdit.class.php).
  • Deprecated function: implode(): Passing glue string after array is deprecated. Swap the parameters in drupal_get_feeds() (line 394 of /home/twolittl/public_html/cms/includes/common.inc).

Hive Data

Page: 1 of 16645  Records: 998690

Row Date Time Hive Temp Hive Humidity Outside Temp Outside Humidity Bottom Board Temp Outside Wall Temp Electronics Temp Light Levels inHG Fan Heat Cover Notes
Clear Sorted By: Fan descending, inHG ascending, Light Levels ascending, Outside Wall Temp ascending, Row descending
View 220455 Oct 25 2014 8:30:41am 80.6 60 52.7 76 71.15 54.95 73.4 124 28.89 1 0 0 Recovery from power loss. Lost about 1 hour of data during power outage.
View 176656 Sep 24 2014 6:40:20am 89.6 69 61.88 89 77 63.95 82.4 6 29.01 1 0 0 NA
View 77336 Jul 1 2014 8:03:27pm 94.28 45 86.18 46 92.3 90.05 107.6 654 29.03 1 0 0 NA
View 77337 Jul 1 2014 8:04:28pm 94.28 47 86.18 48 92.3 90.05 107.6 656 29.03 1 0 0 NA
View 77335 Jul 1 2014 8:02:26pm 94.1 45 86.36 45 92.75 90.05 107.6 656 29.03 1 0 0 NA
View 77334 Jul 1 2014 8:01:26pm 94.1 44 86.54 43 92.75 90.05 107.6 661 29.03 1 0 0 NA
View 77332 Jul 1 2014 7:59:23pm 94.1 44 86.72 43 92.75 90.5 107.6 662 29.03 1 0 0 NA
View 77333 Jul 1 2014 8:00:25pm 94.1 44 86.54 44 92.75 90.5 107.6 663 29.03 1 0 0 NA
View 77331 Jul 1 2014 7:58:22pm 94.1 44 86.9 43 92.75 90.5 107.6 663 29.03 1 0 0 NA
View 77330 Jul 1 2014 7:57:21pm 94.1 43 86.9 43 92.75 90.5 107.6 669 29.03 1 0 0 NA
View 77329 Jul 1 2014 7:56:21pm 94.1 43 87.08 42 92.75 90.5 107.6 670 29.03 1 0 0 NA
View 77328 Jul 1 2014 7:55:19pm 94.1 43 87.26 42 92.75 90.5 107.6 673 29.03 1 0 0 NA
View 77327 Jul 1 2014 7:54:18pm 94.1 45 87.26 41 92.75 90.95 107.6 675 29.03 1 0 0 NA
View 77326 Jul 1 2014 7:53:17pm 94.1 44 87.44 43 92.75 90.95 107.6 676 29.03 1 0 0 NA
View 77325 Jul 1 2014 7:52:15pm 94.1 43 87.62 41 92.75 90.95 107.6 678 29.03 1 0 0 NA
View 77324 Jul 1 2014 7:51:14pm 94.1 44 87.8 43 92.75 90.95 107.6 679 29.03 1 0 0 NA
View 77323 Jul 1 2014 7:50:14pm 94.1 44 87.8 41 93.2 90.95 107.6 681 29.03 1 0 0 NA
View 77322 Jul 1 2014 7:49:13pm 94.1 44 87.98 41 93.2 90.95 107.6 683 29.03 1 0 0 NA
View 77321 Jul 1 2014 7:48:11pm 94.28 44 88.16 43 93.2 91.4 107.6 684 29.03 1 0 0 NA
View 77320 Jul 1 2014 7:47:10pm 94.28 44 88.34 42 93.2 91.4 107.6 686 29.03 1 0 0 NA
View 77319 Jul 1 2014 7:46:10pm 94.28 44 88.7 42 93.2 91.4 107.6 687 29.03 1 0 0 NA
View 77318 Jul 1 2014 7:45:09pm 94.28 44 88.7 43 93.2 91.4 107.6 689 29.03 1 0 0 NA
View 77317 Jul 1 2014 7:44:08pm 94.28 44 88.88 42 93.2 91.4 107.6 691 29.03 1 0 0 NA
View 77316 Jul 1 2014 7:43:06pm 94.28 43 89.06 42 93.2 91.85 107.6 693 29.03 1 0 0 NA
View 77315 Jul 1 2014 7:42:05pm 94.46 43 89.24 41 93.65 91.85 107.6 695 29.03 1 0 0 NA
View 77314 Jul 1 2014 7:41:05pm 94.46 44 89.24 42 93.65 91.85 107.6 696 29.03 1 0 0 NA
View 77313 Jul 1 2014 7:40:04pm 94.46 43 89.42 42 93.65 91.85 107.6 697 29.03 1 0 0 NA
View 77312 Jul 1 2014 7:39:02pm 94.46 43 89.6 42 93.65 92.3 107.6 698 29.03 1 0 0 NA
View 77311 Jul 1 2014 7:38:01pm 94.46 43 89.78 39 93.65 92.3 107.6 699 29.03 1 0 0 NA
View 77310 Jul 1 2014 7:37:00pm 94.46 43 89.96 39 93.65 92.3 107.6 700 29.03 1 0 0 NA
View 77309 Jul 1 2014 7:36:00pm 94.46 43 90.14 41 93.65 92.3 107.6 701 29.03 1 0 0 NA
View 77308 Jul 1 2014 7:34:58pm 94.64 43 90.32 40 94.1 92.75 107.6 703 29.03 1 0 0 NA
View 77307 Jul 1 2014 7:33:57pm 94.64 43 90.5 40 94.1 92.75 107.6 706 29.03 1 0 0 NA
View 77306 Jul 1 2014 7:31:42pm 94.46 43 90.68 40 94.1 92.75 107.6 709 29.03 1 0 0 NA
View 77305 Jul 1 2014 7:30:41pm 94.46 43 90.86 41 94.1 93.2 107.6 711 29.03 1 0 0 NA
View 77304 Jul 1 2014 7:29:39pm 94.46 45 91.04 40 94.1 93.2 107.6 713 29.03 1 0 0 NA
View 77303 Jul 1 2014 7:28:38pm 94.46 42 91.04 40 94.1 93.2 107.6 714 29.03 1 0 0 NA
View 77302 Jul 1 2014 7:27:38pm 94.64 42 91.04 38 94.1 93.2 107.6 717 29.03 1 0 0 NA
View 77301 Jul 1 2014 7:26:37pm 94.46 42 91.04 39 94.1 93.2 107.6 719 29.03 1 0 0 NA
View 77300 Jul 1 2014 7:25:35pm 94.46 41 91.22 39 94.55 93.65 107.6 720 29.03 1 0 0 NA
View 77299 Jul 1 2014 7:24:34pm 94.46 40 91.22 35 94.55 93.65 107.6 722 29.03 1 0 0 NA
View 77298 Jul 1 2014 7:23:33pm 94.46 40 91.22 33 94.55 93.65 107.6 725 29.03 1 0 0 NA
View 77297 Jul 1 2014 7:22:33pm 94.46 40 91.4 34 94.55 93.65 109.4 727 29.03 1 0 0 NA
View 77296 Jul 1 2014 7:21:32pm 94.46 40 91.58 34 94.55 93.65 109.4 729 29.03 1 0 0 NA
View 77295 Jul 1 2014 7:20:30pm 94.64 41 91.58 34 94.55 93.65 109.4 731 29.03 1 0 0 NA
View 77294 Jul 1 2014 7:19:29pm 94.46 42 91.76 36 94.55 93.65 109.4 731 29.03 1 0 0 NA
View 77293 Jul 1 2014 7:18:28pm 94.64 42 91.76 38 94.55 94.1 109.4 737 29.03 1 0 0 NA
View 77292 Jul 1 2014 7:17:28pm 94.64 42 91.76 38 94.55 94.1 109.4 737 29.03 1 0 0 NA
View 77291 Jul 1 2014 7:16:26pm 94.64 41 91.94 37 94.55 94.1 109.4 739 29.03 1 0 0 NA
View 77290 Jul 1 2014 7:15:25pm 94.64 41 91.94 36 95 94.1 109.4 739 29.03 1 0 0 NA
View 77288 Jul 1 2014 7:13:22pm 94.64 41 91.94 34 95 94.1 109.4 739 29.03 1 0 0 NA
View 77289 Jul 1 2014 7:14:24pm 94.64 41 91.94 34 94.55 94.1 109.4 740 29.03 1 0 0 NA
View 77287 Jul 1 2014 7:12:22pm 94.64 41 92.12 34 95 94.1 109.4 741 29.03 1 0 0 NA
View 77278 Jul 1 2014 7:03:12pm 95 42 92.66 39 95.45 94.55 109.4 741 29.03 1 0 0 NA
View 77286 Jul 1 2014 7:11:21pm 94.64 41 92.12 34 95 94.55 109.4 746 29.03 1 0 0 NA
View 77285 Jul 1 2014 7:10:20pm 94.64 42 92.3 36 95 94.55 109.4 749 29.03 1 0 0 NA
View 77284 Jul 1 2014 7:09:18pm 94.64 42 92.48 37 95 94.55 109.4 751 29.03 1 0 0 NA
View 77270 Jul 1 2014 6:55:04pm 95.18 40 93.38 35 95.9 95 109.4 751 29.03 1 0 0 NA
View 77272 Jul 1 2014 6:57:05pm 95.18 41 93.2 34 95.9 95 109.4 753 29.03 1 0 0 NA
View 77283 Jul 1 2014 7:08:17pm 94.82 42 92.48 35 95 94.55 109.4 755 29.03 1 0 0 NA